createdAt,value
2023-04-03T00:02:24.716Z,5.87
2023-04-03T00:04:53.569Z,5.23
2023-04-03T00:07:22.161Z,6.20
2023-04-03T00:09:50.738Z,6.60
2023-04-03T00:12:19.364Z,5.63
2023-04-03T00:14:47.995Z,6.13
2023-04-03T00:17:17.979Z,5.67
2023-04-03T00:19:46.666Z,5.27
2023-04-03T00:22:15.429Z,6.70
2023-04-03T00:24:44.074Z,6.13
2023-04-03T00:27:12.954Z,8.17
2023-04-03T00:29:41.595Z,6.50
2023-04-03T00:32:10.217Z,7.23
2023-04-03T00:34:40.242Z,5.20
2023-04-03T00:37:08.837Z,7.77
2023-04-03T00:39:37.463Z,5.20
2023-04-03T00:42:06.082Z,7.17
2023-04-03T00:45:11.941Z,5.53
2023-04-03T00:47:41.796Z,6.10
2023-04-03T00:50:12.251Z,5.90
2023-04-03T00:52:41.872Z,6.50
2023-04-03T00:55:11.996Z,6.20
2023-04-03T00:57:40.990Z,5.57
2023-04-03T01:00:13.509Z,6.07
2023-04-03T01:02:42.336Z,5.50
2023-04-03T01:05:13.012Z,5.57
2023-04-03T01:07:41.993Z,5.70
2023-04-03T01:10:14.967Z,6.43
2023-04-03T01:12:47.189Z,5.10
2023-04-03T01:15:18.127Z,5.60
2023-04-03T01:17:48.597Z,5.83
2023-04-03T01:20:44.810Z,5.23
2023-04-03T01:23:35.382Z,5.57
2023-04-03T01:26:04.940Z,7.37
2023-04-03T01:28:35.622Z,4.87
2023-04-03T01:31:14.492Z,7.27
2023-04-03T01:33:45.623Z,5.87
2023-04-03T01:36:17.903Z,6.20
2023-04-03T01:38:46.525Z,5.73
2023-04-03T01:41:15.281Z,7.90
2023-04-03T01:43:44.083Z,6.10
2023-04-03T01:46:13.042Z,7.83
2023-04-03T01:48:42.223Z,7.27
2023-04-03T01:51:12.291Z,7.57
2023-04-03T01:53:41.106Z,5.77
2023-04-03T01:56:10.306Z,8.40
2023-04-03T01:58:39.392Z,6.23
2023-04-03T02:01:08.333Z,6.93
2023-04-03T02:03:37.084Z,5.67
2023-04-03T02:06:06.214Z,6.00
2023-04-03T02:08:36.140Z,4.90
2023-04-03T02:11:04.924Z,7.97
2023-04-03T02:13:33.558Z,6.87
2023-04-03T02:16:07.912Z,7.03
2023-04-03T02:18:36.767Z,5.90
2023-04-03T02:21:05.836Z,8.43
2023-04-03T02:23:37.174Z,5.27
2023-04-03T02:26:08.364Z,7.90
2023-04-03T02:28:37.422Z,5.13
2023-04-03T02:31:07.741Z,7.97
2023-04-03T02:33:37.575Z,5.77
2023-04-03T02:36:08.050Z,6.33
2023-04-03T02:38:38.237Z,7.20
2023-04-03T02:41:09.014Z,5.67
2023-04-03T02:43:37.870Z,5.37
2023-04-03T02:46:07.518Z,7.17
2023-04-03T02:48:37.398Z,5.43
2023-04-03T02:51:06.399Z,7.10
2023-04-03T02:53:35.727Z,5.10
2023-04-03T02:56:06.155Z,6.90
2023-04-03T02:58:34.734Z,5.07
2023-04-03T03:01:03.441Z,7.90
2023-04-03T03:03:32.005Z,5.80
2023-04-03T03:06:05.133Z,6.97
2023-04-03T03:08:33.908Z,5.10
2023-04-03T03:11:02.767Z,5.40
2023-04-03T03:13:32.900Z,5.10
2023-04-03T03:16:01.712Z,6.03
2023-04-03T03:18:30.827Z,5.93
2023-04-03T03:21:01.530Z,5.33
2023-04-03T03:23:33.192Z,5.17
2023-04-03T03:26:03.158Z,5.53
2023-04-03T03:28:33.658Z,5.10
2023-04-03T03:31:02.645Z,5.40
2023-04-03T03:33:31.639Z,5.87
2023-04-03T03:36:00.477Z,5.87
2023-04-03T03:38:29.343Z,6.33
2023-04-03T03:40:57.945Z,6.03
2023-04-03T03:43:26.706Z,7.43
2023-04-03T03:45:57.055Z,5.20
2023-04-03T03:48:26.216Z,7.10
2023-04-03T03:50:54.803Z,5.50
2023-04-03T03:53:23.449Z,5.80
2023-04-03T03:55:52.105Z,5.37
2023-04-03T03:58:20.801Z,8.53
2023-04-03T04:00:49.633Z,5.90
2023-04-03T04:03:19.703Z,8.13
2023-04-03T04:05:48.758Z,6.20
2023-04-03T04:08:17.547Z,7.70
2023-04-03T04:10:46.193Z,5.90
2023-04-03T04:13:14.777Z,6.30
2023-04-03T04:15:43.983Z,6.13
2023-04-03T04:18:12.611Z,8.17
2023-04-03T04:20:42.640Z,5.93
2023-04-03T04:23:11.270Z,7.07
2023-04-03T04:25:39.868Z,5.57
2023-04-03T04:28:08.926Z,6.43
2023-04-03T04:30:37.637Z,5.53
2023-04-03T04:33:06.757Z,5.07
2023-04-03T04:35:35.978Z,5.77
2023-04-03T04:38:06.783Z,4.97
2023-04-03T04:40:53.782Z,4.80
2023-04-03T04:43:22.431Z,5.93
2023-04-03T04:45:51.047Z,5.67
2023-04-03T04:48:19.634Z,7.83
2023-04-03T04:50:48.394Z,6.40
2023-04-03T04:53:18.362Z,7.67
2023-04-03T04:55:46.991Z,5.40
2023-04-03T04:58:15.605Z,7.17
2023-04-03T05:00:44.313Z,7.13
2023-04-03T05:03:13.252Z,6.67
2023-04-03T05:05:41.831Z,6.63
2023-04-03T05:08:10.521Z,7.07
2023-04-03T05:10:41.763Z,5.77
2023-04-03T05:13:10.706Z,7.20
2023-04-03T05:15:39.610Z,5.60
2023-04-03T05:18:08.816Z,5.63
2023-04-03T05:20:38.100Z,4.90
2023-04-03T05:23:07.514Z,5.30
2023-04-03T05:25:36.293Z,5.60
2023-04-03T05:28:10.870Z,5.57
2023-04-03T05:30:39.597Z,6.00
2023-04-03T05:33:08.343Z,5.63
2023-04-03T05:35:40.359Z,6.07
2023-04-03T05:38:10.304Z,6.40
2023-04-03T05:40:39.497Z,7.43
2023-04-03T05:43:09.555Z,6.30
2023-04-03T05:45:38.238Z,5.07
2023-04-03T05:48:07.061Z,5.83
2023-04-03T05:50:35.827Z,6.03
2023-04-03T05:53:06.091Z,5.57
2023-04-03T05:55:34.772Z,6.17
2023-04-03T05:58:03.528Z,5.57
2023-04-03T06:00:33.534Z,7.73
2023-04-03T06:03:02.224Z,5.67
2023-04-03T06:05:31.071Z,6.50
2023-04-03T06:07:59.755Z,7.67
2023-04-03T06:10:28.410Z,7.17
2023-04-03T06:12:56.987Z,6.57
2023-04-03T06:15:25.884Z,6.63
2023-04-03T06:17:56.254Z,6.33
2023-04-03T06:20:25.000Z,7.70
2023-04-03T06:22:53.677Z,6.33
2023-04-03T06:25:22.307Z,8.33
2023-04-03T06:27:50.829Z,6.97
2023-04-03T06:30:19.632Z,9.20
2023-04-03T06:32:48.273Z,6.23
2023-04-03T06:35:18.485Z,7.17
2023-04-03T06:37:47.141Z,7.17
2023-04-03T06:40:22.030Z,7.13
2023-04-03T06:42:50.782Z,6.43
2023-04-03T06:45:20.434Z,8.03
2023-04-03T06:47:49.275Z,6.57
2023-04-03T06:50:19.501Z,8.23
2023-04-03T06:52:48.156Z,5.20
2023-04-03T06:55:16.955Z,6.77
2023-04-03T06:57:45.658Z,4.73
2023-04-03T07:00:15.733Z,7.03
2023-04-03T07:02:44.455Z,6.30
2023-04-03T07:05:13.430Z,5.13
2023-04-03T07:07:43.484Z,4.17
2023-04-03T07:10:12.313Z,6.70
2023-04-03T07:12:41.037Z,4.80
2023-04-03T07:15:10.688Z,6.70
2023-04-03T07:17:39.382Z,4.93
2023-04-03T07:20:09.559Z,6.20
2023-04-03T07:22:38.192Z,4.53
2023-04-03T07:25:09.464Z,4.53
2023-04-03T07:27:38.688Z,4.67
2023-04-03T07:30:08.741Z,6.00
2023-04-03T07:32:37.790Z,4.80
2023-04-03T07:35:07.025Z,4.83
2023-04-03T07:37:35.780Z,5.50
2023-04-03T07:40:05.550Z,4.30
2023-04-03T07:42:36.073Z,4.60
2023-04-03T07:45:06.461Z,4.40
2023-04-03T07:47:35.071Z,4.70
2023-04-03T07:50:04.860Z,5.47
2023-04-03T07:52:33.576Z,4.30
2023-04-03T07:55:02.239Z,5.00
2023-04-03T07:57:31.022Z,6.20
2023-04-03T08:00:01.097Z,5.23
2023-04-03T08:02:29.759Z,7.67
2023-04-03T08:04:58.861Z,5.80
2023-04-03T08:07:27.697Z,7.13
2023-04-03T08:09:57.293Z,5.50
2023-04-03T08:12:26.927Z,6.53
2023-04-03T08:14:55.608Z,5.23
2023-04-03T08:17:26.079Z,6.80
2023-04-03T08:19:54.821Z,5.27
2023-04-03T08:22:23.476Z,6.53
2023-04-03T08:24:58.686Z,5.13
2023-04-03T08:27:28.635Z,5.93
2023-04-03T08:29:58.001Z,5.20
2023-04-03T08:32:28.415Z,6.43
2023-04-03T08:34:57.037Z,5.30
2023-04-03T08:37:25.771Z,7.20
2023-04-03T08:39:54.485Z,5.33
2023-04-03T08:42:38.964Z,7.60
2023-04-03T08:45:14.341Z,5.73
2023-04-03T08:47:49.546Z,5.50
2023-04-03T08:50:20.670Z,6.20
2023-04-03T08:52:53.706Z,5.60
2023-04-03T08:55:26.633Z,8.13
2023-04-03T08:58:02.191Z,5.90
2023-04-03T09:00:34.914Z,7.17
2023-04-03T09:03:05.313Z,5.13
2023-04-03T09:05:44.121Z,5.30
2023-04-03T09:08:23.345Z,8.50
2023-04-03T09:11:00.526Z,7.53
2023-04-03T09:13:37.981Z,6.00
2023-04-03T09:16:21.366Z,5.83
2023-04-03T09:18:57.118Z,6.53
2023-04-03T09:21:32.284Z,6.73
2023-04-03T09:24:04.904Z,6.23
2023-04-03T09:26:38.200Z,6.40
2023-04-03T09:29:09.179Z,5.77
2023-04-03T09:31:40.785Z,5.80
2023-04-03T09:34:19.800Z,7.57
2023-04-03T09:36:49.987Z,6.67
2023-04-03T09:39:22.049Z,9.23
2023-04-03T09:42:02.599Z,7.47
2023-04-03T09:44:56.229Z,8.30
2023-04-03T09:47:27.743Z,9.83
2023-04-03T09:50:20.278Z,7.47
2023-04-03T09:52:50.418Z,8.27
2023-04-03T09:55:22.947Z,7.93
2023-04-03T09:57:53.676Z,7.00
2023-04-03T10:00:24.557Z,8.53
2023-04-03T10:02:55.863Z,7.13
2023-04-03T10:05:39.944Z,9.30
2023-04-03T10:08:21.713Z,7.43
2023-04-03T10:11:07.422Z,7.47
2023-04-03T10:13:48.706Z,9.30
2023-04-03T10:16:23.378Z,8.57
2023-04-03T10:19:10.967Z,8.73
2023-04-03T10:21:48.454Z,8.43
2023-04-03T10:24:23.547Z,8.33
2023-04-03T10:26:58.882Z,7.47
2023-04-03T10:29:40.483Z,9.80
2023-04-03T10:32:27.081Z,6.93
2023-04-03T10:35:05.518Z,8.73
2023-04-03T10:37:50.359Z,6.83
2023-04-03T10:40:33.970Z,7.80
2023-04-03T10:43:10.024Z,7.47
2023-04-03T10:45:53.593Z,8.77
2023-04-03T10:48:35.791Z,7.93
2023-04-03T10:51:16.275Z,7.90
2023-04-03T10:53:53.367Z,8.83
2023-04-03T10:56:31.394Z,9.63
2023-04-03T10:59:06.205Z,8.20
2023-04-03T11:01:38.370Z,10.83
2023-04-03T11:04:09.070Z,8.53
2023-04-03T11:06:41.896Z,8.93
2023-04-03T11:09:21.801Z,9.10
2023-04-03T11:11:53.052Z,8.77
2023-04-03T11:14:28.989Z,10.67
2023-04-03T11:17:11.121Z,9.13
2023-04-03T11:19:47.246Z,9.87
2023-04-03T11:22:24.364Z,11.80
2023-04-03T11:25:01.444Z,9.03
2023-04-03T11:27:37.277Z,10.83
2023-04-03T11:30:09.851Z,8.60
2023-04-03T11:32:56.801Z,11.30
2023-04-03T11:35:27.644Z,10.37
2023-04-03T11:37:56.776Z,8.00
2023-04-03T11:40:29.121Z,10.57
2023-04-03T11:43:07.602Z,10.13
2023-04-03T11:45:40.548Z,10.40
2023-04-03T11:48:47.410Z,9.30
2023-04-03T11:51:42.591Z,9.57
2023-04-03T11:54:46.652Z,8.77
2023-04-03T11:57:48.372Z,10.57
2023-04-03T12:00:58.424Z,9.60
2023-04-03T12:03:35.885Z,10.27
2023-04-03T12:06:38.254Z,9.17
2023-04-03T12:09:43.075Z,8.63
2023-04-03T12:12:30.218Z,8.63
2023-04-03T12:15:21.918Z,9.60
2023-04-03T12:17:50.926Z,9.17
2023-04-03T12:20:59.097Z,10.07
2023-04-03T12:23:31.844Z,10.50
2023-04-03T12:26:22.680Z,10.50
2023-04-03T12:28:54.940Z,9.63
2023-04-03T12:31:27.671Z,9.67
2023-04-03T12:34:19.421Z,9.27
2023-04-03T12:37:00.168Z,8.90
2023-04-03T12:39:46.670Z,9.10
2023-04-03T12:42:34.788Z,9.50
2023-04-03T12:45:12.165Z,9.30
2023-04-03T12:47:45.577Z,10.13
2023-04-03T12:50:25.501Z,9.60
2023-04-03T12:52:59.696Z,8.70
2023-04-03T12:55:28.971Z,9.20
2023-04-03T12:57:57.713Z,8.97
2023-04-03T13:00:36.067Z,10.07
2023-04-03T13:03:08.351Z,10.00
2023-04-03T13:05:38.200Z,11.27
2023-04-03T13:08:12.347Z,9.73
2023-04-03T13:10:52.133Z,10.13
2023-04-03T13:13:20.822Z,9.27
2023-04-03T13:15:51.385Z,8.90
2023-04-03T13:18:32.794Z,9.70
2023-04-03T13:21:05.807Z,9.23
2023-04-03T13:23:37.313Z,11.83
2023-04-03T13:26:07.658Z,9.63
2023-04-03T13:28:41.710Z,11.67
2023-04-03T13:31:20.597Z,9.43
2023-04-03T13:33:59.483Z,11.53
2023-04-03T13:36:32.065Z,11.13
2023-04-03T13:39:02.548Z,10.33
2023-04-03T13:41:33.708Z,11.00
2023-04-03T13:44:18.458Z,9.40
2023-04-03T13:46:47.395Z,12.73
2023-04-03T13:49:37.536Z,10.50
2023-04-03T13:52:29.705Z,9.13
2023-04-03T13:55:02.048Z,10.30
2023-04-03T13:57:31.615Z,11.47
2023-04-03T14:00:00.449Z,10.30
2023-04-03T14:02:34.403Z,10.40
2023-04-03T14:05:06.528Z,8.73
2023-04-03T14:07:35.715Z,11.43
2023-04-03T14:10:04.642Z,9.80
2023-04-03T14:12:37.260Z,11.13
2023-04-03T14:15:17.651Z,9.50
2023-04-03T14:17:46.617Z,10.93
2023-04-03T14:20:20.605Z,10.70
2023-04-03T14:22:49.880Z,11.27
2023-04-03T14:25:19.571Z,10.83
2023-04-03T14:27:51.035Z,10.57
2023-04-03T14:30:22.480Z,11.80
2023-04-03T14:32:51.743Z,11.00
2023-04-03T14:35:24.701Z,10.20
2023-04-03T14:37:54.538Z,11.73
2023-04-03T14:40:25.280Z,9.90
2023-04-03T14:42:57.431Z,10.43
2023-04-03T14:45:27.400Z,9.57
2023-04-03T14:47:58.275Z,10.57
2023-04-03T14:50:29.401Z,9.60
2023-04-03T14:53:00.697Z,10.20
2023-04-03T14:55:29.340Z,9.97
2023-04-03T14:57:58.020Z,10.63
2023-04-03T15:00:26.890Z,9.83
2023-04-03T15:02:55.891Z,10.93
2023-04-03T15:05:24.761Z,10.53
2023-04-03T15:07:57.448Z,9.77
2023-04-03T15:10:28.302Z,11.43
2023-04-03T15:12:57.758Z,10.07
2023-04-03T15:15:30.564Z,11.47
2023-04-03T15:17:59.738Z,10.70
2023-04-03T15:20:31.730Z,10.80
2023-04-03T15:23:03.155Z,10.50
2023-04-03T15:25:32.128Z,11.90
2023-04-03T15:28:01.985Z,9.37
2023-04-03T15:30:30.631Z,10.93
2023-04-03T15:32:59.472Z,9.17
2023-04-03T15:35:28.275Z,12.10
2023-04-03T15:37:56.900Z,9.43
2023-04-03T15:40:27.013Z,9.07
2023-04-03T15:42:56.019Z,9.57
2023-04-03T15:45:24.907Z,9.33
2023-04-03T15:47:53.876Z,10.23
2023-04-03T15:50:23.898Z,10.13
2023-04-03T15:52:55.367Z,10.17
2023-04-03T15:55:24.582Z,10.67
2023-04-03T15:57:54.779Z,9.80
2023-04-03T16:00:24.811Z,10.87
2023-04-03T16:02:58.499Z,11.63
2023-04-03T16:05:27.747Z,12.03
2023-04-03T16:07:56.421Z,9.23
2023-04-03T16:10:26.147Z,9.97
2023-04-03T16:12:56.127Z,10.77
2023-04-03T16:15:25.886Z,9.73
2023-04-03T16:17:55.513Z,9.77
2023-04-03T16:20:24.197Z,9.80
2023-04-03T16:22:53.013Z,10.03
2023-04-03T16:25:21.865Z,10.07
2023-04-03T16:27:50.520Z,10.73
2023-04-03T16:30:20.730Z,9.27
2023-04-03T16:32:49.558Z,11.37
2023-04-03T16:35:18.493Z,9.03
2023-04-03T16:37:47.141Z,9.17
2023-04-03T16:40:16.720Z,9.10
2023-04-03T16:42:45.612Z,9.37
2023-04-03T16:45:14.303Z,9.87
2023-04-03T16:47:44.382Z,9.37
2023-04-03T16:50:13.392Z,8.77
2023-04-03T16:52:42.128Z,9.47
2023-04-03T16:55:11.271Z,9.10
2023-04-03T16:57:39.958Z,9.37
2023-04-03T17:00:10.888Z,9.03
2023-04-03T17:02:39.561Z,11.20
2023-04-03T17:05:10.670Z,8.43
2023-04-03T17:07:39.463Z,10.90
2023-04-03T17:10:09.475Z,9.47
2023-04-03T17:12:38.115Z,11.17
2023-04-03T17:15:08.065Z,8.37
2023-04-03T17:17:37.510Z,9.30
2023-04-03T17:20:07.285Z,8.57
2023-04-03T17:22:37.592Z,9.03
2023-04-03T17:25:07.019Z,8.83
2023-04-03T17:27:35.979Z,8.73
2023-04-03T17:30:06.206Z,8.00
2023-04-03T17:32:35.057Z,9.20
2023-04-03T17:35:03.728Z,9.77
2023-04-03T17:37:32.368Z,8.40
2023-04-03T17:40:02.323Z,8.33
2023-04-03T17:42:32.733Z,10.63
2023-04-03T17:45:01.427Z,9.33
2023-04-03T17:47:30.284Z,7.50
2023-04-03T17:49:58.962Z,7.13
2023-04-03T17:52:28.449Z,7.70
2023-04-03T17:54:57.124Z,8.60
2023-04-03T17:57:27.109Z,7.80
2023-04-03T17:59:55.738Z,8.70
2023-04-03T18:02:24.514Z,8.13
2023-04-03T18:04:54.301Z,8.13
2023-04-03T18:07:23.238Z,7.63
2023-04-03T18:09:53.267Z,8.37
2023-04-03T18:12:22.307Z,8.27
2023-04-03T18:14:52.314Z,10.00
2023-04-03T18:17:22.376Z,10.30
2023-04-03T18:19:51.668Z,9.73
2023-04-03T18:22:22.609Z,7.60
2023-04-03T18:24:52.567Z,9.30
2023-04-03T18:27:23.253Z,8.60
2023-04-03T18:29:56.088Z,8.80
2023-04-03T18:32:25.320Z,8.17
2023-04-03T18:34:54.203Z,10.17
2023-04-03T18:37:24.238Z,9.57
2023-04-03T18:39:53.141Z,11.93
2023-04-03T18:42:24.443Z,8.87
2023-04-03T18:44:57.557Z,9.63
2023-04-03T18:47:28.163Z,8.43
2023-04-03T18:49:57.091Z,10.23
2023-04-03T18:52:26.377Z,10.67
2023-04-03T18:54:56.829Z,8.37
2023-04-03T18:57:26.768Z,7.97
2023-04-03T18:59:56.790Z,8.00
2023-04-03T19:02:26.997Z,8.17
2023-04-03T19:04:56.946Z,8.03
2023-04-03T19:07:25.951Z,7.53
2023-04-03T19:09:54.741Z,7.13
2023-04-03T19:12:23.482Z,8.07
2023-04-03T19:14:52.100Z,7.73
2023-04-03T19:17:22.160Z,8.57
2023-04-03T19:19:50.909Z,10.17
2023-04-03T19:22:19.614Z,9.63
2023-04-03T19:24:48.190Z,8.73
2023-04-03T19:27:16.833Z,7.97
2023-04-03T19:29:45.371Z,9.13
2023-04-03T19:32:14.029Z,7.43
2023-04-03T19:34:44.046Z,9.93
2023-04-03T19:37:14.371Z,8.30
2023-04-03T19:39:43.035Z,9.40
2023-04-03T19:42:12.051Z,7.50
2023-04-03T19:44:40.938Z,7.40
2023-04-03T19:47:10.749Z,7.10
2023-04-03T19:49:39.590Z,7.70
2023-04-03T19:52:09.717Z,7.50
2023-04-03T19:54:38.430Z,8.37
2023-04-03T19:57:08.401Z,7.87
2023-04-03T19:59:37.720Z,9.50
2023-04-03T20:02:06.793Z,8.97
2023-04-03T20:04:38.914Z,7.03
2023-04-03T20:07:09.176Z,7.47
2023-04-03T20:09:38.096Z,6.30
2023-04-03T20:12:09.621Z,7.10
2023-04-03T20:14:41.097Z,6.67
2023-04-03T20:17:10.025Z,6.23
2023-04-03T20:19:41.466Z,6.70
2023-04-03T20:22:11.779Z,6.80
2023-04-03T20:24:42.862Z,7.50
2023-04-03T20:27:12.036Z,7.13
2023-04-03T20:29:40.688Z,7.10
2023-04-03T20:32:11.963Z,7.90
2023-04-03T20:34:57.504Z,6.33
2023-04-03T20:37:33.981Z,6.13
2023-04-03T20:40:02.849Z,5.63
2023-04-03T20:42:31.546Z,5.97
2023-04-03T20:45:00.177Z,6.60
2023-04-03T20:47:28.828Z,6.17
2023-04-03T20:49:57.569Z,6.93
2023-04-03T20:52:26.285Z,7.17
2023-04-03T20:54:56.260Z,8.53
2023-04-03T20:57:25.047Z,6.67
2023-04-03T20:59:53.867Z,7.77
2023-04-03T21:02:22.861Z,6.77
2023-04-03T21:04:55.305Z,7.63
2023-04-03T21:08:02.022Z,6.47
2023-04-03T21:11:08.210Z,6.00
2023-04-03T21:14:17.162Z,6.47
2023-04-03T21:16:47.006Z,6.03
2023-04-03T21:19:20.863Z,5.90
2023-04-03T21:21:51.297Z,8.60
2023-04-03T21:24:20.947Z,6.20
2023-04-03T21:26:50.480Z,7.80
2023-04-03T21:29:19.093Z,6.50
2023-04-03T21:31:53.442Z,7.60
2023-04-03T21:34:26.325Z,6.93
2023-04-03T21:36:55.783Z,5.33
2023-04-03T21:39:24.518Z,6.77
2023-04-03T21:41:53.579Z,9.27
2023-04-03T21:44:23.450Z,6.87
2023-04-03T21:46:54.533Z,9.77
2023-04-03T21:49:27.136Z,9.00
2023-04-03T21:51:56.035Z,11.17
2023-04-03T21:54:26.237Z,7.73
2023-04-03T21:56:55.213Z,8.53
2023-04-03T21:59:24.141Z,6.77
2023-04-03T22:01:52.938Z,8.87
2023-04-03T22:04:22.462Z,6.50
2023-04-03T22:06:53.460Z,10.90
2023-04-03T22:09:22.217Z,7.60
2023-04-03T22:11:51.594Z,8.30
2023-04-03T22:14:20.382Z,7.27
2023-04-03T22:16:49.046Z,9.20
2023-04-03T22:19:17.864Z,8.10
2023-04-03T22:21:46.485Z,9.77
2023-04-03T22:24:18.631Z,7.37
2023-04-03T22:26:48.135Z,7.67
2023-04-03T22:29:17.201Z,7.63
2023-04-03T22:31:45.911Z,7.27
2023-04-03T22:34:15.941Z,7.30
2023-04-03T22:36:44.763Z,7.80
2023-04-03T22:39:15.270Z,7.03
2023-04-03T22:41:45.639Z,7.17
2023-04-03T22:44:14.414Z,7.27
2023-04-03T22:46:43.223Z,7.40
2023-04-03T22:49:12.298Z,7.37
2023-04-03T22:51:41.081Z,7.00
2023-04-03T22:54:09.685Z,7.23
2023-04-03T22:56:38.409Z,7.23
2023-04-03T22:59:08.521Z,7.97
2023-04-03T23:01:39.313Z,8.67
2023-04-03T23:04:08.278Z,6.80
2023-04-03T23:06:37.196Z,5.43
2023-04-03T23:09:05.937Z,7.63
2023-04-03T23:11:34.684Z,6.77
2023-04-03T23:14:03.363Z,6.70
2023-04-03T23:16:33.403Z,6.37
2023-04-03T23:19:02.708Z,9.33
2023-04-03T23:21:31.423Z,6.63
2023-04-03T23:24:00.083Z,6.97
2023-04-03T23:26:28.775Z,6.70
2023-04-03T23:28:57.499Z,8.40
2023-04-03T23:31:26.200Z,8.13
2023-04-03T23:33:56.549Z,8.07
2023-04-03T23:36:25.156Z,7.73
2023-04-03T23:38:57.461Z,9.43
2023-04-03T23:41:26.092Z,7.03
2023-04-03T23:43:54.798Z,9.40
2023-04-03T23:46:23.483Z,6.87
2023-04-03T23:48:52.183Z,8.23
2023-04-03T23:51:22.195Z,7.97
2023-04-03T23:53:51.185Z,8.50
2023-04-03T23:56:19.838Z,7.33
2023-04-03T23:58:48.579Z,8.03
